Time;durP1;ratioP1;P1;durP2;ratioP2;P2;SDS_P1;SDS_P2;PMS_P1;PMS_P2;Temp;Humidity;BMP_temperature;BMP_pressure;BME280_temperature;BME280_humidity;BME280_pressure;Samples;Min_cycle;Max_cycle;Signal;HPM_P1;HPM_P2
2021/03/10 00:01:00;;;;;;;35.38;14.63;;;;;;;-2.48;62.38;100284.16;255063;1104;116547;-61
2021/03/10 00:06:05;;;;;;;39.83;18.07;;;;;;;-2.49;63.84;100285.95;255095;1105;115227;-61
2021/03/10 00:11:09;;;;;;;44.63;19.32;;;;;;;-2.49;63.28;100285.95;252222;1105;116746;-65
2021/03/10 00:16:12;;;;;;;45.05;21.00;;;;;;;-2.47;61.29;100281.42;254111;1104;115871;-65
2021/03/10 00:21:16;;;;;;;37.05;18.55;;;;;;;-2.38;61.57;100285.79;252997;1104;116446;-64
2021/03/10 00:26:19;;;;;;;40.40;21.07;;;;;;;-2.41;60.33;100283.45;252264;1104;116093;-61
2021/03/10 00:31:23;;;;;;;43.55;20.90;;;;;;;-2.46;60.64;100283.06;254277;1104;116004;-63
2021/03/10 00:36:26;;;;;;;42.03;20.35;;;;;;;-2.50;61.37;100270.42;253258;1105;116518;-63
2021/03/10 00:41:29;;;;;;;36.70;19.50;;;;;;;-2.55;65.16;100280.45;252557;1105;116342;-63
2021/03/10 00:46:34;;;;;;;74.47;30.40;;;;;;;-2.64;64.92;100279.47;253699;1105;115919;-63
2021/03/10 00:51:37;;;;;;;50.63;25.52;;;;;;;-2.72;66.73;100272.31;252547;1105;116134;-63
2021/03/10 00:56:40;;;;;;;45.45;21.17;;;;;;;-2.81;68.83;100274.94;251975;1105;117366;-63
2021/03/10 01:01:45;;;;;;;52.95;24.23;;;;;;;-2.90;67.09;100267.92;252105;1105;115963;-62
2021/03/10 01:06:48;;;;;;;52.00;22.17;;;;;;;-3.00;68.72;100272.28;252991;1105;116613;-63
2021/03/10 01:11:52;;;;;;;59.05;24.98;;;;;;;-3.05;64.15;100257.03;252238;1105;115147;-62
2021/03/10 01:16:55;;;;;;;58.55;24.70;;;;;;;-3.05;66.26;100251.82;252723;1104;116137;-61
2021/03/10 01:22:03;;;;;;;54.75;24.82;;;;;;;-3.04;63.78;100253.47;252270;1104;115912;-64
2021/03/10 01:27:08;;;;;;;43.28;21.60;;;;;;;-3.00;63.70;100247.03;252675;1105;117921;-61
2021/03/10 01:32:12;;;;;;;56.95;25.25;;;;;;;-2.97;63.52;100241.55;251913;1105;116186;-61
2021/03/10 01:37:16;;;;;;;42.10;19.90;;;;;;;-2.95;62.80;100230.98;253528;1104;117690;-63
2021/03/10 01:42:19;;;;;;;51.08;24.12;;;;;;;-2.88;63.63;100237.30;253121;1104;116770;-62
2021/03/10 01:47:22;;;;;;;41.63;21.93;;;;;;;-2.84;65.11;100233.47;254045;1104;115626;-62
2021/03/10 01:52:26;;;;;;;50.10;23.87;;;;;;;-2.78;63.57;100240.75;254159;1104;116712;-62
2021/03/10 01:57:29;;;;;;;51.28;22.30;;;;;;;-2.71;64.88;100229.61;253720;1104;116499;-61
2021/03/10 02:02:32;;;;;;;48.40;23.75;;;;;;;-2.61;65.17;100234.84;254822;1105;115415;-62
2021/03/10 02:07:41;;;;;;;36.90;20.70;;;;;;;-2.47;64.19;100230.99;253098;1105;116086;-61
2021/03/10 02:13:29;;;;;;;38.10;20.45;;;;;;;-2.42;65.56;100233.98;254513;1105;115497;-62
2021/03/10 02:18:46;;;;;;;39.20;21.57;;;;;;;-2.36;63.44;100228.21;254456;1105;115317;-62
2021/03/10 02:24:34;;;;;;;37.28;18.15;;;;;;;-2.39;64.77;100228.48;254045;1105;116734;-63
2021/03/10 02:29:39;;;;;;;48.92;20.68;;;;;;;-2.44;64.45;100225.47;253153;1105;115480;-62
2021/03/10 02:34:42;;;;;;;43.90;23.95;;;;;;;-2.51;64.49;100227.84;252188;1105;116861;-61
2021/03/10 02:39:45;;;;;;;42.53;20.30;;;;;;;-2.56;63.43;100222.20;252432;1104;118429;-65
2021/03/10 02:44:50;;;;;;;35.73;17.97;;;;;;;-2.53;63.32;100221.92;252837;1105;219446;-61
2021/03/10 02:49:56;;;;;;;46.35;20.57;;;;;;;-2.57;63.97;100222.34;252556;1105;117633;-62
2021/03/10 02:55:00;;;;;;;41.97;20.37;;;;;;;-2.58;64.44;100228.52;252690;1105;117462;-64
2021/03/10 03:00:10;;;;;;;38.23;17.30;;;;;;;-2.56;62.96;100226.59;251697;1105;116709;-61
2021/03/10 03:05:14;;;;;;;38.10;18.32;;;;;;;-2.56;64.14;100232.64;252574;1103;117230;-62
2021/03/10 03:10:27;;;;;;;33.78;18.32;;;;;;;-2.44;64.55;100230.69;252724;1105;116925;-62
2021/03/10 03:15:31;;;;;;;48.05;21.80;;;;;;;-2.41;64.00;100227.80;252211;1104;116791;-63
2021/03/10 03:20:35;;;;;;;38.05;19.20;;;;;;;-2.48;65.38;100224.95;252080;1105;118177;-62
2021/03/10 03:25:41;;;;;;;31.37;18.23;;;;;;;-2.51;64.79;100225.22;252806;1105;116158;-62
2021/03/10 03:30:47;;;;;;;43.33;20.50;;;;;;;-2.53;66.01;100227.14;253277;1105;116088;-63
2021/03/10 03:35:54;;;;;;;39.77;19.97;;;;;;;-2.58;65.22;100233.73;252165;1105;176863;-63
2021/03/10 03:40:57;;;;;;;39.33;20.85;;;;;;;-2.61;64.73;100228.79;253157;1105;116112;-63
2021/03/10 03:46:04;;;;;;;38.65;20.75;;;;;;;-2.57;65.04;100228.38;253959;1105;115617;-64
2021/03/10 03:51:26;;;;;;;37.00;19.50;;;;;;;-2.48;64.60;100224.95;254055;1105;116448;-63
2021/03/10 03:56:29;;;;;;;36.93;19.52;;;;;;;-2.51;64.93;100229.63;254080;1105;118317;-63
2021/03/10 04:01:32;;;;;;;36.98;21.68;;;;;;;-2.57;66.06;100233.59;254835;1104;117555;-63
2021/03/10 04:06:36;;;;;;;34.85;18.20;;;;;;;-2.61;63.36;100234.84;253581;1105;117143;-66
2021/03/10 04:11:46;;;;;;;38.67;19.95;;;;;;;-2.63;64.37;100230.71;254613;1104;118221;-65
2021/03/10 04:16:50;;;;;;;42.17;20.12;;;;;;;-2.72;63.72;100227.13;254263;1105;117061;-66
2021/03/10 04:21:54;;;;;;;48.40;21.73;;;;;;;-2.75;64.06;100228.23;254245;1105;114981;-65
2021/03/10 04:26:57;;;;;;;39.33;19.50;;;;;;;-2.75;63.63;100225.62;254030;1104;115163;-62
2021/03/10 04:32:00;;;;;;;43.30;20.02;;;;;;;-2.77;64.63;100227.57;253359;1105;115950;-63
2021/03/10 04:37:04;;;;;;;39.65;21.07;;;;;;;-2.85;65.59;100230.03;253729;1105;115360;-64
2021/03/10 04:42:08;;;;;;;43.28;18.40;;;;;;;-2.90;65.50;100228.79;253830;1104;115489;-64
2021/03/10 04:47:11;;;;;;;43.57;20.50;;;;;;;-2.88;66.23;100237.30;251651;1105;116380;-63
2021/03/10 04:52:16;;;;;;;40.55;20.43;;;;;;;-2.89;66.92;100230.44;252933;1105;115778;-64
2021/03/10 04:57:20;;;;;;;48.60;22.50;;;;;;;-2.92;65.90;100235.92;252504;1105;115223;-64
2021/03/10 05:02:23;;;;;;;44.77;22.10;;;;;;;-2.96;66.20;100230.16;252174;1105;115942;-65
2021/03/10 05:07:27;;;;;;;43.08;22.27;;;;;;;-2.97;65.94;100236.33;252680;1105;116099;-64
2021/03/10 05:12:31;;;;;;;43.98;21.02;;;;;;;-3.00;64.72;100233.98;253605;1105;118022;-64
2021/03/10 05:17:36;;;;;;;40.83;19.30;;;;;;;-2.98;67.36;100246.89;252160;1105;115371;-62
2021/03/10 05:22:40;;;;;;;37.93;20.08;;;;;;;-2.93;67.24;100239.49;252117;1105;115756;-63
2021/03/10 05:27:45;;;;;;;47.25;23.42;;;;;;;-2.85;67.62;100237.03;253255;1105;115212;-63
2021/03/10 05:32:48;;;;;;;41.68;21.75;;;;;;;-2.83;67.14;100238.55;252608;1105;115242;-63
2021/03/10 05:37:51;;;;;;;44.60;21.60;;;;;;;-2.71;68.26;100240.05;253487;1104;115280;-64
2021/03/10 05:42:55;;;;;;;40.63;21.12;;;;;;;-2.58;66.98;100247.61;253775;1105;115335;-62
2021/03/10 05:47:59;;;;;;;53.55;24.55;;;;;;;-2.45;67.87;100252.56;252001;1105;115487;-62
2021/03/10 05:53:07;;;;;;;45.50;22.77;;;;;;;-2.30;66.58;100263.39;253426;1104;119287;-62
2021/03/10 05:58:13;;;;;;;37.35;21.27;;;;;;;-2.13;67.43;100255.66;253656;1105;115700;-65
2021/03/10 06:03:17;;;;;;;37.88;19.90;;;;;;;-2.01;66.93;100260.73;254038;1105;115945;-64
2021/03/10 06:08:27;;;;;;;41.33;23.55;;;;;;;-1.80;66.83;100259.55;253817;1105;116281;-62
2021/03/10 06:13:32;;;;;;;43.92;20.08;;;;;;;-1.60;65.49;100269.97;254315;1105;115718;-63
2021/03/10 06:18:36;;;;;;;35.63;17.90;;;;;;;-1.43;64.36;100271.80;254933;1104;115831;-64
2021/03/10 06:23:56;;;;;;;39.65;23.10;;;;;;;-1.21;64.46;100273.20;254978;1105;115085;-64
2021/03/10 06:29:01;;;;;;;36.83;22.13;;;;;;;-0.97;63.56;100275.29;254157;1104;115936;-65
2021/03/10 06:34:07;;;;;;;41.88;21.50;;;;;;;-0.80;62.32;100287.56;253747;1105;115423;-65
2021/03/10 06:39:12;;;;;;;35.43;20.37;;;;;;;-0.70;61.39;100294.39;253326;1105;116376;-64
2021/03/10 06:44:18;;;;;;;44.90;21.50;;;;;;;-0.47;62.14;100297.38;252469;1105;115171;-63
2021/03/10 06:49:23;;;;;;;36.28;20.65;;;;;;;-0.25;60.67;100303.12;253735;1105;116066;-64
2021/03/10 06:54:29;;;;;;;32.95;19.07;;;;;;;0.03;60.07;100306.45;252821;1103;115430;-63
2021/03/10 06:59:48;;;;;;;32.13;18.90;;;;;;;0.17;60.11;100311.97;251575;1105;118013;-63
2021/03/10 07:04:55;;;;;;;39.23;19.92;;;;;;;0.30;60.14;100324.69;252907;1105;115250;-64
2021/03/10 07:09:58;;;;;;;33.45;19.20;;;;;;;0.44;58.76;100320.66;252758;1104;115275;-65
2021/03/10 07:15:06;;;;;;;32.70;15.67;;;;;;;0.73;57.52;100312.45;251548;1105;117031;-61
2021/03/10 07:20:11;;;;;;;39.05;21.00;;;;;;;0.83;56.47;100311.35;251764;1105;117168;-63
2021/03/10 07:25:21;;;;;;;34.80;20.33;;;;;;;0.94;57.68;100308.42;251905;1105;115463;-63
2021/03/10 07:30:54;;;;;;;27.30;14.60;;;;;;;1.05;55.64;100303.88;252805;1105;117592;-64
2021/03/10 07:36:01;;;;;;;40.33;21.40;;;;;;;1.09;56.01;100311.27;252879;1105;117106;-69
2021/03/10 07:41:09;;;;;;;;;;;;;;;1.21;55.55;100325.77;251311;1105;116666;-67
2021/03/10 07:46:27;;;;;;;40.28;18.73;;;;;;;1.17;55.42;100320.98;252790;1105;104251;-67
2021/03/10 07:51:32;;;;;;;;;;;;;;;1.19;54.42;100324.28;251891;1105;116858;-66
2021/03/10 07:56:34;;;;;;;27.95;18.30;;;;;;;1.24;53.94;100314.91;254139;1104;104481;-67
2021/03/10 08:01:39;;;;;;;28.38;17.17;;;;;;;1.34;52.95;100330.55;252985;1104;118319;-67
2021/03/10 08:06:55;;;;;;;31.85;18.07;;;;;;;1.44;52.99;100320.72;253564;1105;117380;-65
2021/03/10 08:12:06;;;;;;;31.23;18.52;;;;;;;1.62;51.36;100328.45;252912;1105;116379;-65
2021/03/10 08:17:19;;;;;;;31.12;18.73;;;;;;;1.76;52.09;100319.94;254029;1105;117710;-66
2021/03/10 08:22:24;;;;;;;32.60;15.32;;;;;;;1.94;51.54;100319.77;254354;1105;117465;-64
2021/03/10 08:27:32;;;;;;;35.28;19.25;;;;;;;2.12;51.80;100319.61;254940;1105;117794;-64
2021/03/10 08:32:37;;;;;;;32.50;21.02;;;;;;;2.27;50.04;100307.41;254323;1105;117536;-64
2021/03/10 08:37:44;;;;;;;31.97;20.95;;;;;;;2.39;50.19;100300.82;253838;1105;118567;-63
2021/03/10 08:42:47;;;;;;;43.92;19.85;;;;;;;2.53;50.86;100305.37;254480;1105;117520;-65
2021/03/10 08:48:12;;;;;;;35.52;19.85;;;;;;;2.65;49.60;100309.30;254783;1104;118278;-64
2021/03/10 08:53:16;;;;;;;24.47;13.78;;;;;;;2.55;49.25;100321.82;253547;1105;116679;-64
2021/03/10 08:58:19;;;;;;;30.45;19.02;;;;;;;2.54;49.66;100314.91;253073;1105;117848;-62
2021/03/10 09:03:23;;;;;;;25.93;17.40;;;;;;;2.63;48.98;100318.35;251625;1105;117310;-63
2021/03/10 09:08:26;;;;;;;35.53;19.03;;;;;;;2.81;49.24;100318.94;252070;1105;116398;-63
2021/03/10 09:13:29;;;;;;;23.57;16.65;;;;;;;2.96;47.26;100308.52;252922;1105;117813;-63
2021/03/10 09:18:34;;;;;;;36.00;19.82;;;;;;;3.24;48.42;100316.78;251710;1105;116065;-64
2021/03/10 09:23:41;;;;;;;33.23;20.40;;;;;;;3.48;45.49;100313.99;253242;1105;115451;-64
2021/03/10 09:28:46;;;;;;;28.83;15.88;;;;;;;3.61;45.67;100327.43;251848;1105;115273;-65
2021/03/10 09:33:49;;;;;;;27.00;18.00;;;;;;;4.00;46.42;100331.73;252895;1105;115948;-65
2021/03/10 09:38:54;;;;;;;23.87;17.27;;;;;;;4.35;44.22;100333.73;252736;1104;115426;-63
2021/03/10 09:44:08;;;;;;;23.20;16.05;;;;;;;4.38;42.90;100328.09;251476;1105;116239;-62
2021/03/10 09:49:13;;;;;;;22.47;14.67;;;;;;;4.79;42.41;100318.92;252206;1105;116110;-65
2021/03/10 09:54:16;;;;;;;28.67;16.67;;;;;;;4.98;42.56;100329.73;253368;1105;115498;-63
2021/03/10 09:59:19;;;;;;;26.97;14.65;;;;;;;5.09;42.78;100331.10;253448;1105;115701;-64
2021/03/10 10:04:28;;;;;;;30.35;17.30;;;;;;;5.46;42.15;100324.02;252471;1105;117056;-64
2021/03/10 10:09:32;;;;;;;20.83;16.57;;;;;;;5.41;40.60;100313.98;254470;1104;116200;-61
2021/03/10 10:14:35;;;;;;;29.18;17.00;;;;;;;5.56;39.11;100329.80;254046;1105;116042;-64
2021/03/10 10:19:40;;;;;;;21.33;15.05;;;;;;;5.74;35.54;100331.02;254009;1104;116171;-63
2021/03/10 10:24:46;;;;;;;27.65;16.23;;;;;;;5.72;37.91;100334.86;253923;1105;115924;-66
2021/03/10 10:29:50;;;;;;;29.75;17.25;;;;;;;5.60;36.67;100334.52;253546;1104;115532;-63
2021/03/10 10:34:55;;;;;;;35.30;23.95;;;;;;;5.66;38.27;100338.25;254644;1104;115909;-63
2021/03/10 10:39:59;;;;;;;26.20;17.40;;;;;;;5.42;34.88;100339.42;254471;1104;115001;-64
2021/03/10 10:45:07;;;;;;;27.02;14.60;;;;;;;5.52;39.11;100336.45;254274;1105;116326;-64
2021/03/10 10:50:13;;;;;;;18.20;10.65;;;;;;;5.58;35.92;100335.72;252700;1105;116792;-62
2021/03/10 10:55:18;;;;;;;21.85;14.13;;;;;;;5.62;36.79;100327.22;253613;1105;116838;-62
2021/03/10 11:00:25;;;;;;;17.92;9.98;;;;;;;5.55;33.64;100339.55;252049;1105;116033;-63
2021/03/10 11:05:28;;;;;;;27.00;16.45;;;;;;;6.03;35.59;100331.92;253068;1105;114991;-63
2021/03/10 11:10:31;;;;;;;35.38;16.62;;;;;;;5.94;33.86;100327.76;251665;1105;116092;-63
2021/03/10 11:15:34;;;;;;;20.05;12.88;;;;;;;6.04;33.72;100322.97;252390;1105;116692;-62
2021/03/10 11:20:38;;;;;;;18.80;12.33;;;;;;;6.12;33.71;100327.28;253356;1105;116183;-63
2021/03/10 11:25:40;;;;;;;25.80;13.22;;;;;;;5.58;34.60;100323.31;251831;1105;115602;-64
2021/03/10 11:30:43;;;;;;;25.77;14.80;;;;;;;5.01;36.07;100318.80;252077;1105;116910;-63
2021/03/10 11:35:46;;;;;;;17.50;13.88;;;;;;;4.88;38.04;100329.22;251333;1105;116198;-63
2021/03/10 11:40:48;;;;;;;34.08;19.02;;;;;;;4.60;39.13;100304.43;251684;1105;116498;-63
2021/03/10 11:45:51;;;;;;;24.82;16.05;;;;;;;4.56;40.51;100305.82;251520;1105;118170;-63
2021/03/10 11:50:55;;;;;;;27.98;18.07;;;;;;;4.48;40.08;100301.44;252334;1105;116496;-63
2021/03/10 11:55:57;;;;;;;32.13;19.27;;;;;;;4.50;39.53;100293.34;253207;1105;116159;-63
2021/03/10 12:01:01;;;;;;;30.02;16.97;;;;;;;4.32;38.85;100291.86;252510;1105;115858;-64
2021/03/10 12:06:06;;;;;;;21.10;14.63;;;;;;;4.57;35.81;100295.08;252150;1105;116662;-64
2021/03/10 12:11:09;;;;;;;24.10;15.83;;;;;;;4.49;37.03;100281.96;252279;1105;117836;-64
2021/03/10 12:16:12;;;;;;;9.58;7.25;;;;;;;4.65;34.07;100270.38;253965;1105;116470;-65
2021/03/10 12:21:15;;;;;;;20.12;13.68;;;;;;;4.61;38.92;100266.46;253021;1104;115590;-62
2021/03/10 12:26:18;;;;;;;20.72;15.48;;;;;;;4.70;37.84;100268.02;253161;1104;116264;-62
2021/03/10 12:31:20;;;;;;;19.40;14.45;;;;;;;4.98;37.81;100261.05;254665;1105;116000;-62
2021/03/10 12:36:24;;;;;;;28.70;15.80;;;;;;;4.95;37.45;100250.84;254560;1105;115076;-65
2021/03/10 12:41:27;;;;;;;20.73;13.50;;;;;;;5.11;36.84;100267.50;253649;1105;116031;-63
2021/03/10 12:46:31;;;;;;;14.90;10.60;;;;;;;5.29;35.09;100257.31;253694;1105;116518;-65
2021/03/10 12:51:35;;;;;;;15.77;12.00;;;;;;;5.35;33.48;100253.92;251612;1105;116381;-64
2021/03/10 12:56:39;;;;;;;18.17;12.35;;;;;;;5.16;34.50;100257.19;253182;1104;116474;-65
2021/03/10 13:01:42;;;;;;;16.75;11.48;;;;;;;4.98;35.41;100263.69;253235;1104;118886;-65
2021/03/10 13:06:45;;;;;;;11.53;8.43;;;;;;;4.69;36.64;100271.66;253082;1105;117157;-66
2021/03/10 13:11:49;;;;;;;20.72;14.50;;;;;;;4.64;36.14;100281.94;253745;1105;116659;-67
2021/03/10 13:16:52;;;;;;;19.42;14.13;;;;;;;4.44;38.83;100283.50;252617;1104;115315;-63
2021/03/10 13:21:55;;;;;;;20.30;15.18;;;;;;;4.35;36.49;100278.30;252590;1104;116084;-61
2021/03/10 13:26:59;;;;;;;20.72;12.63;;;;;;;4.07;38.38;100277.27;253180;1104;116741;-63
2021/03/10 13:32:03;;;;;;;13.47;10.67;;;;;;;3.94;39.43;100279.71;252466;1105;116470;-64
2021/03/10 13:37:07;;;;;;;14.15;11.75;;;;;;;3.81;38.81;100272.39;252039;1105;114762;-64
2021/03/10 13:42:11;;;;;;;17.98;12.30;;;;;;;3.83;38.91;100280.13;253581;1104;116424;-66
2021/03/10 13:47:16;;;;;;;7.80;6.22;;;;;;;3.93;36.27;100276.25;253373;1104;115667;-66
2021/03/10 13:52:20;;;;;;;15.65;10.85;;;;;;;4.28;34.85;100266.03;252272;1105;117399;-63
2021/03/10 13:57:24;;;;;;;14.33;10.43;;;;;;;4.20;37.43;100259.02;253346;1105;115519;-64
2021/03/10 14:02:30;;;;;;;13.90;10.00;;;;;;;4.42;36.88;100267.02;253211;1105;115437;-65
2021/03/10 14:07:35;;;;;;;13.98;10.55;;;;;;;4.37;35.77;100257.83;253530;1104;116424;-64
2021/03/10 14:12:40;;;;;;;17.35;10.23;;;;;;;4.29;36.60;100244.70;251918;1104;115338;-65
2021/03/10 14:17:43;;;;;;;10.70;8.05;;;;;;;4.24;36.36;100241.00;253510;1105;116217;-63
2021/03/10 14:22:50;;;;;;;12.03;8.75;;;;;;;4.14;39.24;100235.98;253483;1105;115249;-63
2021/03/10 14:27:54;;;;;;;17.70;12.03;;;;;;;4.16;36.35;100241.08;253808;1104;115038;-65
2021/03/10 14:32:58;;;;;;;20.60;12.95;;;;;;;4.32;36.54;100239.07;254758;1104;115211;-63
2021/03/10 14:38:01;;;;;;;19.02;14.05;;;;;;;4.24;36.13;100235.72;254241;1105;115176;-62
2021/03/10 14:43:05;;;;;;;23.18;17.10;;;;;;;4.16;35.20;100233.98;254672;1105;115236;-65
2021/03/10 14:48:09;;;;;;;18.02;11.55;;;;;;;3.90;36.77;100242.32;254892;1105;116381;-65
2021/03/10 14:53:14;;;;;;;34.05;21.07;;;;;;;3.69;38.15;100242.98;252994;1105;117072;-64
2021/03/10 14:58:17;;;;;;;37.95;24.18;;;;;;;3.58;40.34;100245.23;253523;1105;115182;-67
2021/03/10 15:03:21;;;;;;;32.08;18.87;;;;;;;3.39;37.98;100252.61;252893;1105;116725;-64
2021/03/10 15:08:25;;;;;;;56.68;34.48;;;;;;;3.38;40.29;100253.59;252435;1105;116186;-63
2021/03/10 15:13:27;;;;;;;34.00;22.42;;;;;;;3.27;38.96;100253.20;251503;1105;115730;-62
2021/03/10 15:18:32;;;;;;;20.97;14.85;;;;;;;3.13;40.03;100257.39;251242;1105;115812;-65
2021/03/10 15:23:41;;;;;;;27.87;18.82;;;;;;;3.06;41.79;100247.75;252373;1105;114969;-65
2021/03/10 15:28:45;;;;;;;27.07;17.25;;;;;;;3.06;42.92;100242.48;252520;1105;116539;-63
2021/03/10 15:33:49;;;;;;;23.07;17.00;;;;;;;3.00;40.13;100233.45;253263;1105;116104;-63
2021/03/10 15:38:53;;;;;;;27.17;16.75;;;;;;;2.95;41.48;100247.13;252332;1105;115578;-65
2021/03/10 15:43:56;;;;;;;62.33;29.23;;;;;;;2.92;42.23;100244.02;252581;1104;115389;-65
2021/03/10 15:48:59;;;;;;;47.33;28.03;;;;;;;2.80;44.21;100235.67;253270;1105;116048;-64
2021/03/10 15:54:03;;;;;;;63.13;32.45;;;;;;;2.73;43.75;100239.19;252370;1105;115464;-66
2021/03/10 15:59:07;;;;;;;38.33;22.50;;;;;;;2.55;46.76;100231.52;252060;1105;115170;-65
2021/03/10 16:04:11;;;;;;;31.65;22.02;;;;;;;2.35;45.64;100231.11;253031;1104;119003;-64
2021/03/10 16:09:13;;;;;;;33.15;21.90;;;;;;;2.22;50.98;100229.00;252988;1104;115803;-64
2021/03/10 16:14:17;;;;;;;34.98;22.27;;;;;;;2.06;50.01;100231.68;253048;1105;115908;-64
2021/03/10 16:19:20;;;;;;;36.17;20.65;;;;;;;1.85;51.08;100234.00;252500;1105;115791;-66
2021/03/10 16:24:26;;;;;;;34.57;19.50;;;;;;;1.59;51.64;100239.44;252063;1105;116362;-66
2021/03/10 16:29:30;;;;;;;29.92;19.98;;;;;;;1.32;52.57;100246.66;253637;1105;115670;-66
2021/03/10 16:34:35;;;;;;;29.27;19.70;;;;;;;1.06;56.26;100240.70;254761;1105;115148;-66
2021/03/10 16:39:38;;;;;;;28.12;18.37;;;;;;;0.72;57.40;100230.28;253837;1105;115644;-64
2021/03/10 16:44:43;;;;;;;32.73;19.47;;;;;;;0.47;56.75;100232.00;254410;1105;115030;-63
2021/03/10 16:49:51;;;;;;;33.13;21.68;;;;;;;0.28;54.39;100238.31;254777;1104;116322;-64
2021/03/10 16:54:55;;;;;;;30.40;19.10;;;;;;;0.05;56.06;100239.80;253543;1105;115386;-63
2021/03/10 16:59:58;;;;;;;29.55;19.50;;;;;;;-0.18;57.05;100246.52;252988;1105;115792;-62
2021/03/10 17:05:03;;;;;;;27.17;18.00;;;;;;;-0.39;55.90;100258.17;252226;1105;115451;-63
2021/03/10 17:10:09;;;;;;;38.88;23.47;;;;;;;-0.59;57.73;100261.91;253345;1105;115539;-64
2021/03/10 17:15:15;;;;;;;53.95;31.90;;;;;;;-0.77;59.04;100267.16;253850;1105;115158;-64
2021/03/10 17:20:19;;;;;;;67.58;29.85;;;;;;;-0.86;58.47;100272.44;253142;1105;116885;-62
2021/03/10 17:25:22;;;;;;;70.13;32.73;;;;;;;-1.02;59.96;100273.11;253150;1105;115902;-64
2021/03/10 17:30:27;;;;;;;66.82;31.05;;;;;;;-1.18;60.22;100273.73;252500;1105;117055;-65
2021/03/10 17:35:30;;;;;;;67.05;26.30;;;;;;;-1.32;60.74;100279.47;251670;1105;116429;-62
2021/03/10 17:40:34;;;;;;;51.25;25.40;;;;;;;-1.46;61.82;100285.98;252428;1105;115762;-63
2021/03/10 17:45:38;;;;;;;54.35;29.60;;;;;;;-1.52;63.88;100299.62;251749;1105;116453;-63
2021/03/10 17:50:41;;;;;;;55.70;28.70;;;;;;;-1.65;60.96;100296.53;252667;1105;119272;-62
2021/03/10 17:55:45;;;;;;;54.53;29.57;;;;;;;-1.79;64.61;100304.80;252937;1105;115387;-63
2021/03/10 18:00:51;;;;;;;58.38;29.32;;;;;;;-1.85;63.97;100313.23;252685;1105;115192;-63
2021/03/10 18:05:55;;;;;;;53.53;29.23;;;;;;;-1.87;62.75;100315.16;251718;1105;115480;-64
2021/03/10 18:10:59;;;;;;;52.55;32.30;;;;;;;-1.91;61.81;100317.23;253217;1105;115589;-65
2021/03/10 18:16:03;;;;;;;63.95;32.65;;;;;;;-1.90;63.62;100321.49;252833;1105;115705;-66
2021/03/10 18:21:06;;;;;;;61.70;33.20;;;;;;;-1.96;65.65;100323.83;252483;1105;115273;-66
2021/03/10 18:26:09;;;;;;;50.50;27.67;;;;;;;-2.09;69.61;100334.56;253102;1105;115556;-65
2021/03/10 18:31:11;;;;;;;85.42;41.33;;;;;;;-2.12;68.84;100333.05;254383;1104;116122;-65
2021/03/10 18:36:14;;;;;;;72.00;39.27;;;;;;;-2.15;69.21;100340.36;254561;1105;115842;-64
2021/03/10 18:41:21;;;;;;;117.30;53.28;;;;;;;-2.16;69.45;100343.94;254447;1103;115954;-64
2021/03/10 18:46:33;;;;;;;135.18;63.10;;;;;;;-2.18;70.67;100345.86;254390;1104;116400;-63
2021/03/10 18:51:45;;;;;;;137.25;62.55;;;;;;;-2.24;70.21;100338.57;253978;1104;116542;-63
2021/03/10 18:56:49;;;;;;;109.90;50.90;;;;;;;-2.31;69.61;100340.08;254548;1105;117308;-65
2021/03/10 19:01:53;;;;;;;97.35;50.20;;;;;;;-2.41;71.96;100332.23;253537;1105;115440;-64
2021/03/10 19:06:56;;;;;;;82.55;39.63;;;;;;;-2.54;72.49;100329.91;253312;1105;115189;-63
2021/03/10 19:12:00;;;;;;;49.05;29.80;;;;;;;-2.66;71.81;100325.76;252222;1105;115860;-63
2021/03/10 19:17:03;;;;;;;108.03;48.73;;;;;;;-2.75;72.00;100327.39;253291;1105;116336;-64
2021/03/10 19:22:28;;;;;;;64.65;29.70;;;;;;;-2.81;72.45;100327.12;252799;1105;117717;-63
2021/03/10 19:27:32;;;;;;;110.92;51.33;;;;;;;-2.79;74.25;100331.25;251929;1105;115896;-62
2021/03/10 19:32:35;;;;;;;111.30;51.55;;;;;;;-2.67;71.77;100329.33;253017;1104;115281;-65
2021/03/10 19:37:40;;;;;;;88.43;41.50;;;;;;;-2.54;68.15;100321.25;252478;1104;116283;-60
2021/03/10 19:42:44;;;;;;;77.35;40.10;;;;;;;-2.46;67.17;100306.56;252288;1105;115625;-61
2021/03/10 19:47:47;;;;;;;67.05;33.42;;;;;;;-2.33;65.47;100314.09;252797;1105;116732;-61
2021/03/10 19:52:54;;;;;;;67.60;32.38;;;;;;;-2.22;60.91;100292.25;252136;1105;116181;-61
2021/03/10 19:57:57;;;;;;;60.28;32.85;;;;;;;-2.07;61.02;100303.91;253366;1105;115252;-63
2021/03/10 20:03:00;;;;;;;72.20;30.25;;;;;;;-1.92;59.75;100294.67;252093;1105;116784;-63
2021/03/10 20:08:05;;;;;;;70.90;33.10;;;;;;;-1.76;60.68;100294.90;252730;1105;116135;-65
2021/03/10 20:13:08;;;;;;;117.60;46.50;;;;;;;-1.64;58.65;100292.13;252931;1105;116907;-64
2021/03/10 20:18:12;;;;;;;77.05;37.70;;;;;;;-1.60;58.09;100283.86;253199;1105;116838;-65
2021/03/10 20:23:15;;;;;;;61.90;31.40;;;;;;;-1.62;56.54;100287.58;251595;1105;116614;-65
2021/03/10 20:28:19;;;;;;;58.30;28.92;;;;;;;-1.66;57.39;100275.76;253130;1104;116084;-65
2021/03/10 20:33:22;;;;;;;60.25;30.72;;;;;;;-1.62;58.09;100279.73;251908;1105;116345;-64
2021/03/10 20:38:25;;;;;;;58.60;28.80;;;;;;;-1.55;58.32;100286.88;253867;1105;115417;-65
2021/03/10 20:43:29;;;;;;;51.30;25.97;;;;;;;-1.53;57.31;100278.89;254164;1105;115494;-64
2021/03/10 20:48:33;;;;;;;47.93;26.77;;;;;;;-1.54;58.22;100282.47;254532;1104;116096;-65
2021/03/10 20:53:40;;;;;;;54.55;26.52;;;;;;;-1.50;58.58;100284.63;254876;1105;115072;-61
2021/03/10 20:58:45;;;;;;;58.60;27.35;;;;;;;-1.45;57.11;100278.97;254545;1104;115249;-64
2021/03/10 21:03:48;;;;;;;57.65;27.90;;;;;;;-1.53;56.91;100274.45;254144;1104;115762;-62
2021/03/10 21:08:52;;;;;;;57.67;28.92;;;;;;;-1.54;57.31;100272.01;254814;1105;115095;-65
2021/03/10 21:13:56;;;;;;;51.58;31.82;;;;;;;-1.58;56.82;100266.23;254593;1105;115070;-63
2021/03/10 21:18:59;;;;;;;48.55;28.30;;;;;;;-1.65;57.04;100269.56;253162;1105;118248;-61
2021/03/10 21:24:04;;;;;;;57.62;30.75;;;;;;;-1.75;57.12;100259.95;252551;1105;117309;-63
2021/03/10 21:29:07;;;;;;;51.42;28.45;;;;;;;-1.85;57.64;100259.19;252632;1105;115988;-63
2021/03/10 21:34:11;;;;;;;56.70;29.90;;;;;;;-1.92;56.49;100247.65;251788;1105;115974;-62
2021/03/10 21:39:15;;;;;;;57.60;25.37;;;;;;;-1.94;58.14;100246.97;253075;1105;116046;-65
2021/03/10 21:44:19;;;;;;;69.97;32.08;;;;;;;-1.96;57.93;100235.83;252554;1105;116374;-64
2021/03/10 21:49:23;;;;;;;65.20;28.90;;;;;;;-2.01;57.62;100238.04;252431;1104;117055;-64
2021/03/10 21:54:29;;;;;;;60.58;28.35;;;;;;;-1.98;58.21;100242.98;251602;1105;117884;-64
2021/03/10 21:59:36;;;;;;;60.45;28.90;;;;;;;-2.05;58.20;100247.12;252402;1105;117292;-65
2021/03/10 22:04:41;;;;;;;52.05;26.20;;;;;;;-2.07;58.73;100249.05;252055;1104;116809;-64
2021/03/10 22:09:45;;;;;;;53.95;28.23;;;;;;;-2.04;58.55;100254.81;251949;1105;117256;-64
2021/03/10 22:14:48;;;;;;;55.12;26.05;;;;;;;-2.02;59.47;100254.67;252143;1105;116446;-63
2021/03/10 22:19:52;;;;;;;49.05;23.52;;;;;;;-2.04;57.64;100254.81;252011;1105;117529;-64
2021/03/10 22:24:55;;;;;;;57.60;28.02;;;;;;;-2.05;58.78;100250.55;253167;1105;116665;-63
2021/03/10 22:29:58;;;;;;;54.30;26.33;;;;;;;-2.03;57.86;100258.25;252893;1104;115989;-63
2021/03/10 22:35:04;;;;;;;47.45;26.27;;;;;;;-2.03;58.58;100258.25;252382;1105;116931;-63
2021/03/10 22:40:09;;;;;;;57.70;25.53;;;;;;;-2.00;58.69;100249.31;253468;1105;116605;-62